Observation data for Seymour on 03/23/2019      Previous  Date  Next       Current Mesonet Observations  Soil Data  Daily Summary Page  Observations in Plain Language
KSE1 230500Z 14009KT 16/09 A2996 RMK A01 T01570086  RH  065%=      5-min Rain = 0
KSE1 230505Z 14009KT 16/09 A2996 RMK A01 T01580086  RH  064%=      5-min Rain = 0
KSE1 230510Z 14009KT 16/09 A2996 RMK A01 T01580085  RH  064%=      5-min Rain = 0
KSE1 230515Z 14009KT 16/09 A2995 RMK A01 T01580085  RH  064%=      5-min Rain = 0
KSE1 230520Z 14010KT 16/09 A2995 RMK A01 T01580085  RH  064%=      5-min Rain = 0
KSE1 230525Z 14010KT 16/09 A2995 RMK A01 T01580085  RH  064%=      5-min Rain = 0
KSE1 230530Z 14009KT 16/09 A2995 RMK A01 T01580085  RH  064%=      5-min Rain = 0
KSE1 230535Z 14010KT 16/09 A2995 RMK A01 T01580086  RH  064%=      5-min Rain = 0
KSE1 230540Z 14011KT 16/09 A2995 RMK A01 T01590086  RH  064%=      5-min Rain = 0
KSE1 230545Z 14010KT 16/09 A2995 RMK A01 T01580087  RH  065%=      5-min Rain = 0
KSE1 230550Z 14010KT 16/09 A2995 RMK A01 T01590087  RH  064%=      5-min Rain = 0
KSE1 230555Z 14011KT 16/09 A2995 RMK A01 T01610088  RH  064%=      5-min Rain = 0
KSE1 230600Z 15011KT 16/09 A2994 RMK A01 T01620088  RH  063%=      5-min Rain = 0
KSE1 230605Z 15012KT 16/09 A2994 RMK A01 T01620088  RH  064%=      5-min Rain = 0
KSE1 230610Z 15012KT 16/09 A2994 RMK A01 T01610089  RH  064%=      5-min Rain = 0
KSE1 230615Z 15012KT 16/09 A2994 RMK A01 T01610089  RH  064%=      5-min Rain = 0
KSE1 230620Z 15011KT 16/09 A2994 RMK A01 T01600089  RH  065%=      5-min Rain = 0
KSE1 230625Z 15011KT 16/09 A2994 RMK A01 T01580089  RH  065%=      5-min Rain = 0
KSE1 230630Z 15011KT 16/09 A2994 RMK A01 T01580090  RH  066%=      5-min Rain = 0
KSE1 230635Z 15010KT 16/09 A2994 RMK A01 T01570090  RH  067%=      5-min Rain = 0
KSE1 230640Z 15010G15KT 16/09 A2994 RMK A01 T01560091  RH  067%=      5-min Rain = 0
KSE1 230645Z 15010KT 16/09 A2994 RMK A01 T01560091  RH  067%=      5-min Rain = 0
KSE1 230650Z 16010KT 15/09 A2994 RMK A01 T01540091  RH  068%=      5-min Rain = 0
KSE1 230655Z 16010KT 15/09 A2994 RMK A01 T01540091  RH  068%=      5-min Rain = 0
KSE1 230700Z 16010KT 15/09 A2994 RMK A01 T01530091  RH  069%=      5-min Rain = 0
KSE1 230705Z 16008KT 15/09 A2994 RMK A01 T01520092  RH  069%=      5-min Rain = 0
KSE1 230710Z 16008KT 15/09 A2995 RMK A01 T01500092  RH  070%=      5-min Rain = 0
KSE1 230715Z 16008KT 15/09 A2995 RMK A01 T01490092  RH  071%=      5-min Rain = 0
KSE1 230720Z 16007KT 15/09 A2995 RMK A01 T01470091  RH  072%=      5-min Rain = 0
KSE1 230725Z 16008KT 15/09 A2995 RMK A01 T01450092  RH  073%=      5-min Rain = 0
KSE1 230730Z 16008KT 14/09 A2994 RMK A01 T01440092  RH  073%=      5-min Rain = 0
KSE1 230735Z 16008KT 14/09 A2994 RMK A01 T01440094  RH  074%=      5-min Rain = 0
KSE1 230740Z 16007KT 14/09 A2994 RMK A01 T01430093  RH  074%=      5-min Rain = 0
KSE1 230745Z 16007KT 14/09 A2994 RMK A01 T01410094  RH  075%=      5-min Rain = 0
KSE1 230750Z 17007KT 14/09 A2994 RMK A01 T01390094  RH  076%=      5-min Rain = 0
KSE1 230755Z 16007KT 14/09 A2994 RMK A01 T01370094  RH  077%=      5-min Rain = 0
KSE1 230800Z 16006KT 14/09 A2994 RMK A01 T01360094  RH  078%=      5-min Rain = 0
KSE1 230805Z 16007KT 13/09 A2994 RMK A01 T01340094  RH  079%=      5-min Rain = 0
KSE1 230810Z 16007KT 13/10 A2994 RMK A01 T01340095  RH  080%=      5-min Rain = 0
KSE1 230815Z 16007KT 13/10 A2994 RMK A01 T01340096  RH  080%=      5-min Rain = 0
KSE1 230820Z 16007KT 13/10 A2994 RMK A01 T01330097  RH  081%=      5-min Rain = 0
KSE1 230825Z 16007KT 13/10 A2994 RMK A01 T01330097  RH  082%=      5-min Rain = 0
KSE1 230830Z 16007KT 13/10 A2994 RMK A01 T01320097  RH  082%=      5-min Rain = 0
KSE1 230835Z 16007KT 13/10 A2994 RMK A01 T01330098  RH  082%=      5-min Rain = 0
KSE1 230840Z 16007KT 13/10 A2994 RMK A01 T01340099  RH  082%=      5-min Rain = 0
KSE1 230845Z 16007KT 14/10 A2994 RMK A01 T01350100  RH  082%=      5-min Rain = 0
KSE1 230850Z 16007KT 14/10 A2994 RMK A01 T01360101  RH  082%=      5-min Rain = 0
KSE1 230855Z 16007KT 14/10 A2994 RMK A01 T01370102  RH  082%=      5-min Rain = 0
KSE1 230900Z 16007KT 14/10 A2993 RMK A01 T01390103  RH  081%=      5-min Rain = 0
KSE1 230905Z 16008KT 14/10 A2993 RMK A01 T01390103  RH  081%=      5-min Rain = 0
KSE1 230910Z 16008KT 14/10 A2993 RMK A01 T01410103  RH  081%=      5-min Rain = 0
KSE1 230915Z 16008KT 14/10 A2993 RMK A01 T01410103  RH  081%=      5-min Rain = 0
KSE1 230920Z 16008KT 14/10 A2993 RMK A01 T01420104  RH  081%=      5-min Rain = 0
KSE1 230925Z 16009KT 14/11 A2993 RMK A01 T01430105  RH  080%=      5-min Rain = 0
KSE1 230930Z 16008KT 14/10 A2993 RMK A01 T01430104  RH  080%=      5-min Rain = 0
KSE1 230935Z 16009KT 14/11 A2993 RMK A01 T01420105  RH  081%=      5-min Rain = 0
KSE1 230940Z 16009KT 14/11 A2993 RMK A01 T01430105  RH  081%=      5-min Rain = 0
KSE1 230945Z 16010KT 14/11 A2993 RMK A01 T01440105  RH  081%=      5-min Rain = 0
KSE1 230950Z 16010KT 14/11 A2993 RMK A01 T01440106  RH  080%=      5-min Rain = 0
KSE1 230955Z 16010KT 14/11 A2993 RMK A01 T01440106  RH  080%=      5-min Rain = 0
KSE1 231000Z 16011KT 15/11 A2992 RMK A01 T01450106  RH  080%=      5-min Rain = 0
KSE1 231005Z 16011KT 15/11 A2992 RMK A01 T01450106  RH  080%=      5-min Rain = 0
KSE1 231010Z 16010KT 15/11 A2992 RMK A01 T01450106  RH  080%=      5-min Rain = 0
KSE1 231015Z 17010KT 14/11 A2992 RMK A01 T01440105  RH  080%=      5-min Rain = 0
KSE1 231020Z 17009KT 14/11 A2992 RMK A01 T01430105  RH  081%=      5-min Rain = 0
KSE1 231025Z 17010KT 14/11 A2992 RMK A01 T01440105  RH  080%=      5-min Rain = 0
KSE1 231030Z 17010KT 14/11 A2992 RMK A01 T01430105  RH  080%=      5-min Rain = 0
KSE1 231035Z 17010KT 14/11 A2992 RMK A01 T01430105  RH  080%=      5-min Rain = 0
KSE1 231040Z 16010KT 14/11 A2992 RMK A01 T01440105  RH  080%=      5-min Rain = 0
KSE1 231045Z 16010KT 14/11 A2992 RMK A01 T01440105  RH  080%=      5-min Rain = 0
KSE1 231050Z 16010KT 15/11 A2992 RMK A01 T01450105  RH  080%=      5-min Rain = 0
KSE1 231055Z 17009KT 15/11 A2992 RMK A01 T01460105  RH  079%=      5-min Rain = 0
KSE1 231100Z 17009KT 15/11 A2992 RMK A01 T01450105  RH  079%=      5-min Rain = 0
KSE1 231105Z 16009KT 14/10 A2992 RMK A01 T01440104  RH  079%=      5-min Rain = 0
KSE1 231110Z 16008KT 14/10 A2992 RMK A01 T01430104  RH  080%=      5-min Rain = 0
KSE1 231115Z 16008KT 14/10 A2993 RMK A01 T01430104  RH  080%=      5-min Rain = 0
KSE1 231120Z 16008KT 14/10 A2993 RMK A01 T01420104  RH  081%=      5-min Rain = 0
KSE1 231125Z 16008KT 14/10 A2993 RMK A01 T01430104  RH  080%=      5-min Rain = 0
KSE1 231130Z 16008KT 14/10 A2994 RMK A01 T01440104  RH  080%=      5-min Rain = 0
KSE1 231135Z 16009KT 14/10 A2994 RMK A01 T01440104  RH  079%=      5-min Rain = 0
KSE1 231140Z 16008KT 14/10 A2994 RMK A01 T01440104  RH  079%=      5-min Rain = 0
KSE1 231145Z 16008KT 14/10 A2994 RMK A01 T01440104  RH  079%=      5-min Rain = 0
KSE1 231150Z 16008KT 15/10 A2995 RMK A01 T01450104  RH  079%=      5-min Rain = 0
KSE1 231155Z 16009KT 15/10 A2995 RMK A01 T01450104  RH  079%=      5-min Rain = 0
KSE1 231200Z 16009KT 15/10 A2995 RMK A01 T01460104  RH  078%=      5-min Rain = 0
KSE1 231205Z 16008KT 15/10 A2995 RMK A01 T01450103  RH  079%=      5-min Rain = 0
KSE1 231210Z 16008KT 14/10 A2995 RMK A01 T01440103  RH  079%=      5-min Rain = 0
KSE1 231215Z 16008KT 14/10 A2995 RMK A01 T01440103  RH  079%=      5-min Rain = 0
KSE1 231220Z 16008KT 14/10 A2995 RMK A01 T01420102  RH  080%=      5-min Rain = 0
KSE1 231225Z 16008KT 14/10 A2995 RMK A01 T01420103  RH  080%=      5-min Rain = 0
KSE1 231230Z 17008KT 14/10 A2996 RMK A01 T01420103  RH  080%=      5-min Rain = 0
KSE1 231235Z 16007KT 14/10 A2996 RMK A01 T01430103  RH  079%=      5-min Rain = 0
KSE1 231240Z 16007KT 14/10 A2996 RMK A01 T01430103  RH  079%=      5-min Rain = 0
KSE1 231245Z 16008KT 14/10 A2997 RMK A01 T01440103  RH  079%=      5-min Rain = 0
KSE1 231250Z 16008KT 15/10 A2997 RMK A01 T01450103  RH  078%=      5-min Rain = 0
KSE1 231255Z 16008KT 15/10 A2997 RMK A01 T01460103  RH  078%=      5-min Rain = 0
KSE1 231300Z 16007KT 15/10 A2997 RMK A01 T01460103  RH  078%=      5-min Rain = 0
KSE1 231305Z 17006KT 15/10 A2998 RMK A01 T01460103  RH  078%=      5-min Rain = 0
KSE1 231310Z 18005KT 15/10 A2998 RMK A01 T01460103  RH  078%=      5-min Rain = 0
KSE1 231315Z 18006KT 15/10 A2998 RMK A01 T01450103  RH  078%=      5-min Rain = 0
KSE1 231320Z 18006KT 14/10 A2998 RMK A01 T01440103  RH  079%=      5-min Rain = 0
KSE1 231325Z 18006KT 14/10 A2998 RMK A01 T01440103  RH  079%=      5-min Rain = 0
KSE1 231330Z 18007KT 15/10 A2998 RMK A01 T01450104  RH  079%=      5-min Rain = 0
KSE1 231335Z 18006KT 15/10 A2998 RMK A01 T01450104  RH  079%=      5-min Rain = 0
KSE1 231340Z 19005KT 15/11 A2999 RMK A01 T01460106  RH  079%=      5-min Rain = 0
KSE1 231345Z 19006KT 15/11 A2999 RMK A01 T01460105  RH  079%=      5-min Rain = 0
KSE1 231350Z 19006KT 15/11 A2999 RMK A01 T01480107  RH  079%=      5-min Rain = 0
KSE1 231355Z 18006KT 15/11 A2999 RMK A01 T01510108  RH  078%=      5-min Rain = 0
KSE1 231400Z 17007KT 15/11 A2998 RMK A01 T01520109  RH  078%=      5-min Rain = 0
KSE1 231405Z 18007KT 16/11 A2998 RMK A01 T01560109  RH  076%=      5-min Rain = 0
KSE1 231410Z 18007KT 16/11 A2999 RMK A01 T01600111  RH  075%=      5-min Rain = 0
KSE1 231415Z 18008KT 16/11 A2998 RMK A01 T01620112  RH  075%=      5-min Rain = 0
KSE1 231420Z 18010KT 17/11 A2998 RMK A01 T01660112  RH  073%=      5-min Rain = 0
KSE1 231425Z 18010KT 17/11 A2998 RMK A01 T01690112  RH  072%=      5-min Rain = 0
KSE1 231430Z 18011KT 17/11 A2998 RMK A01 T01720114  RH  071%=      5-min Rain = 0
KSE1 231435Z 18012KT 18/11 A2998 RMK A01 T01760114  RH  069%=      5-min Rain = 0
KSE1 231440Z 18012KT 18/12 A2998 RMK A01 T01790115  RH  069%=      5-min Rain = 0
KSE1 231445Z 18012KT 18/12 A2998 RMK A01 T01810117  RH  068%=      5-min Rain = 0
KSE1 231450Z 19012KT 18/12 A2998 RMK A01 T01840118  RH  068%=      5-min Rain = 0
KSE1 231455Z 19013G18KT 19/12 A2999 RMK A01 T01870119  RH  067%=      5-min Rain = 0
KSE1 231500Z 19013KT 19/12 A2999 RMK A01 T01880119  RH  067%=      5-min Rain = 0
KSE1 231505Z 19012KT 19/12 A2999 RMK A01 T01880120  RH  067%=      5-min Rain = 0
KSE1 231510Z 19013KT 19/12 A2999 RMK A01 T01870121  RH  068%=      5-min Rain = 0
KSE1 231515Z 20012KT 19/12 A2999 RMK A01 T01880121  RH  068%=      5-min Rain = 0
KSE1 231520Z 19012KT 19/12 A2998 RMK A01 T01890123  RH  068%=      5-min Rain = 0
KSE1 231525Z 19011G16KT 19/13 A2998 RMK A01 T01920125  RH  068%=      5-min Rain = 0
KSE1 231530Z 19013KT 19/12 A2998 RMK A01 T01890123  RH  068%=      5-min Rain = 0
KSE1 231535Z 19012KT 19/13 A2998 RMK A01 T01940126  RH  068%=      5-min Rain = 0
KSE1 231540Z 19013G18KT 20/13 A2998 RMK A01 T01970127  RH  067%=      5-min Rain = 0
KSE1 231545Z 19013KT 20/13 A2998 RMK A01 T01990129  RH  067%=      5-min Rain = 0
KSE1 231550Z 20017G23KT 20/13 A2998 RMK A01 T02010130  RH  066%=      5-min Rain = 0
KSE1 231555Z 20015KT 20/13 A2998 RMK A01 T02020131  RH  066%=      5-min Rain = 0
KSE1 231600Z 20016KT 20/13 A2998 RMK A01 T02040131  RH  065%=      5-min Rain = 0
KSE1 231605Z 20014G19KT 20/13 A2998 RMK A01 T02040131  RH  066%=      5-min Rain = 0
KSE1 231610Z 21015G20KT 21/13 A2998 RMK A01 T02080134  RH  065%=      5-min Rain = 0
KSE1 231615Z 20015G20KT 21/14 A2998 RMK A01 T02110135  RH  064%=      5-min Rain = 0
KSE1 231620Z 20016G21KT 21/14 A2998 RMK A01 T02130136  RH  064%=      5-min Rain = 0
KSE1 231625Z 20015KT 21/13 A2998 RMK A01 T02100134  RH  064%=      5-min Rain = 0
KSE1 231630Z 21014G19KT 21/14 A2998 RMK A01 T02130137  RH  064%=      5-min Rain = 0
KSE1 231635Z 20015G20KT 22/14 A2997 RMK A01 T02180137  RH  062%=      5-min Rain = 0
KSE1 231640Z 20016G22KT 22/14 A2997 RMK A01 T02180137  RH  062%=      5-min Rain = 0
KSE1 231645Z 21015G20KT 22/13 A2997 RMK A01 T02180133  RH  061%=      5-min Rain = 0
KSE1 231650Z 21014G21KT 22/14 A2997 RMK A01 T02220136  RH  061%=      5-min Rain = 0
KSE1 231655Z 22014G22KT 22/13 A2997 RMK A01 T02220133  RH  059%=      5-min Rain = 0
KSE1 231700Z 21014G22KT 22/13 A2997 RMK A01 T02230131  RH  058%=      5-min Rain = 0
KSE1 231705Z 22016KT 22/12 A2997 RMK A01 T02200123  RH  056%=      5-min Rain = 0
KSE1 231710Z 20015G20KT 22/13 A2997 RMK A01 T02210127  RH  057%=      5-min Rain = 0
KSE1 231715Z 21013G19KT 23/13 A2996 RMK A01 T02260126  RH  055%=      5-min Rain = 0
KSE1 231720Z 22014KT 23/13 A2996 RMK A01 T02300129  RH  055%=      5-min Rain = 0
KSE1 231725Z 21013G18KT 23/13 A2996 RMK A01 T02310125  RH  053%=      5-min Rain = 0
KSE1 231730Z 20012G18KT 23/13 A2996 RMK A01 T02300125  RH  054%=      5-min Rain = 0
KSE1 231735Z 20014G19KT 23/13 A2996 RMK A01 T02320125  RH  053%=      5-min Rain = 0
KSE1 231740Z 22014KT 23/12 A2996 RMK A01 T02340115  RH  049%=      5-min Rain = 0
KSE1 231745Z 21011G16KT 24/12 A2996 RMK A01 T02360115  RH  048%=      5-min Rain = 0
KSE1 231750Z 20012G17KT 24/11 A2996 RMK A01 T02370114  RH  048%=      5-min Rain = 0
KSE1 231755Z 21015KT 24/11 A2995 RMK A01 T02370112  RH  047%=      5-min Rain = 0
KSE1 231800Z 20012G18KT 24/11 A2995 RMK A01 T02380114  RH  047%=      5-min Rain = 0
KSE1 231805Z 21015G21KT 24/12 A2995 RMK A01 T02380115  RH  048%=      5-min Rain = 0
KSE1 231810Z 20013G19KT 24/12 A2995 RMK A01 T02420117  RH  047%=      5-min Rain = 0
KSE1 231815Z 21013G18KT 24/11 A2995 RMK A01 T02440109  RH  044%=      5-min Rain = 0
KSE1 231820Z 23010KT 25/10 A2994 RMK A01 T02470101  RH  041%=      5-min Rain = 0
KSE1 231825Z 21013G18KT 25/11 A2994 RMK A01 T02470107  RH  043%=      5-min Rain = 0
KSE1 231830Z 22014G21KT 24/10 A2994 RMK A01 T02440099  RH  041%=      5-min Rain = 0
KSE1 231835Z 23013G20KT 25/10 A2994 RMK A01 T02470098  RH  040%=      5-min Rain = 0
KSE1 231840Z 21012KT 25/10 A2994 RMK A01 T02470099  RH  041%=      5-min Rain = 0
KSE1 231845Z 21012G19KT 25/10 A2993 RMK A01 T02470102  RH  041%=      5-min Rain = 0
KSE1 231850Z 20013G19KT 25/10 A2993 RMK A01 T02460099  RH  041%=      5-min Rain = 0
KSE1 231855Z 21014KT 25/10 A2993 RMK A01 T02480097  RH  040%=      5-min Rain = 0
KSE1 231900Z 21012G17KT 25/10 A2993 RMK A01 T02460098  RH  040%=      5-min Rain = 0
KSE1 231905Z 20013KT 25/10 A2993 RMK A01 T02490103  RH  041%=      5-min Rain = 0
KSE1 231910Z 20013G19KT 25/09 A2992 RMK A01 T02500092  RH  038%=      5-min Rain = 0
KSE1 231915Z 21012KT 25/08 A2992 RMK A01 T02530084  RH  035%=      5-min Rain = 0
KSE1 231920Z 19014G19KT 26/09 A2992 RMK A01 T02560086  RH  035%=      5-min Rain = 0
KSE1 231925Z 19014G19KT 25/09 A2992 RMK A01 T02530087  RH  036%=      5-min Rain = 0
KSE1 231930Z 19013KT 26/08 A2991 RMK A01 T02560083  RH  034%=      5-min Rain = 0
KSE1 231935Z 21015KT 26/07 A2991 RMK A01 T02590072  RH  031%=      5-min Rain = 0
KSE1 231940Z 20014G19KT 26/07 A2991 RMK A01 T02580065  RH  030%=      5-min Rain = 0
KSE1 231945Z 20013G19KT 26/06 A2991 RMK A01 T02570057  RH  028%=      5-min Rain = 0
KSE1 231950Z 21012G18KT 26/06 A2991 RMK A01 T02550056  RH  029%=      5-min Rain = 0
KSE1 231955Z 20013G18KT 26/05 A2991 RMK A01 T02590051  RH  027%=      5-min Rain = 0
KSE1 232000Z 19014KT 26/05 A2991 RMK A01 T02610052  RH  027%=      5-min Rain = 0
KSE1 232005Z 21013G18KT 26/05 A2991 RMK A01 T02570049  RH  027%=      5-min Rain = 0
KSE1 232010Z 21012G19KT 26/05 A2991 RMK A01 T02560045  RH  026%=      5-min Rain = 0
KSE1 232015Z 21014KT 26/04 A2991 RMK A01 T02580044  RH  026%=      5-min Rain = 0
KSE1 232020Z 20012KT 26/05 A299 RMK A01 T02640051  RH  026%=      5-min Rain = 0
KSE1 232025Z 20014G20KT 26/05 A299 RMK A01 T02600049  RH  026%=      5-min Rain = 0
KSE1 232030Z 20012G17KT 26/05 A299 RMK A01 T02600051  RH  027%=      5-min Rain = 0
KSE1 232035Z 21010G17KT 26/05 A299 RMK A01 T02640045  RH  025%=      5-min Rain = 0
KSE1 232040Z 22013G18KT 27/03 A299 RMK A01 T02660031  RH  022%=      5-min Rain = 0
KSE1 232045Z 20011G16KT 26/04 A2989 RMK A01 T02630042  RH  025%=      5-min Rain = 0
KSE1 232050Z 22014KT 26/03 A2989 RMK A01 T02620029  RH  023%=      5-min Rain = 0
KSE1 232055Z 22012G18KT 26/03 A2989 RMK A01 T02620030  RH  023%=      5-min Rain = 0
KSE1 232100Z 23011G16KT 26/04 A2989 RMK A01 T02630035  RH  023%=      5-min Rain = 0
KSE1 232105Z 22014G19KT 26/03 A2989 RMK A01 T02630031  RH  023%=      5-min Rain = 0
KSE1 232110Z 21011G17KT 26/03 A2989 RMK A01 T02630029  RH  022%=      5-min Rain = 0
KSE1 232115Z 22011KT 26/03 A2989 RMK A01 T02630029  RH  022%=      5-min Rain = 0
KSE1 232120Z 21013G18KT 27/03 A2989 RMK A01 T02700030  RH  022%=      5-min Rain = 0
KSE1 232125Z 22011KT 27/02 A2989 RMK A01 T02650023  RH  021%=      5-min Rain = 0
KSE1 232130Z 23013KT 26/02 A2989 RMK A01 T02630018  RH  021%=      5-min Rain = 0
KSE1 232135Z 22014G19KT 27/00 A2989 RMK A01 T02660002  RH  018%=      5-min Rain = 0
KSE1 232140Z 22015G25KT 27/M00 A2989 RMK A01 T02691002  RH  017%=      5-min Rain = 0
KSE1 232145Z 23014G19KT 27/00 A2989 RMK A01 T027200-0  RH  017%=      5-min Rain = 0
KSE1 232150Z 22015G21KT 27/M00 A2989 RMK A01 T02711002  RH  017%=      5-min Rain = 0
KSE1 232155Z 23017G22KT 27/00 A2989 RMK A01 T027000-0  RH  017%=      5-min Rain = 0
KSE1 232200Z 22015G21KT 27/00 A2989 RMK A01 T02700003  RH  018%=      5-min Rain = 0
KSE1 232205Z 23015G22KT 27/00 A2989 RMK A01 T02710002  RH  018%=      5-min Rain = 0
KSE1 232210Z 22015G20KT 27/00 A2989 RMK A01 T02690001  RH  018%=      5-min Rain = 0
KSE1 232215Z 24014KT 26/00 A2989 RMK A01 T02640002  RH  018%=      5-min Rain = 0
KSE1 232220Z 22014KT 26/M01 A2989 RMK A01 T02601007  RH  017%=      5-min Rain = 0
KSE1 232225Z 23013KT 26/M01 A2989 RMK A01 T02591010  RH  017%=      5-min Rain = 0
KSE1 232230Z 23012KT 26/M00 A2989 RMK A01 T02621004  RH  018%=      5-min Rain = 0
KSE1 232235Z 23014KT 26/00 A2989 RMK A01 T02600001  RH  019%=      5-min Rain = 0
KSE1 232240Z 24015KT 26/M00 A2989 RMK A01 T02561004  RH  018%=      5-min Rain = 0
KSE1 232245Z 24012KT 25/01 A2989 RMK A01 T02540005  RH  020%=      5-min Rain = 0
KSE1 232250Z 24012KT 25/01 A2989 RMK A01 T02540005  RH  020%=      5-min Rain = 0
KSE1 232255Z 24011KT 25/02 A2989 RMK A01 T02510016  RH  022%=      5-min Rain = 0
KSE1 232300Z 23011G16KT 25/00 A2989 RMK A01 T02500004  RH  020%=      5-min Rain = 0
KSE1 232305Z 23012KT 25/M01 A2989 RMK A01 T02511012  RH  018%=      5-min Rain = 0
KSE1 232310Z 23013KT 25/M01 A2989 RMK A01 T02491009  RH  018%=      5-min Rain = 0
KSE1 232315Z 23012KT 25/M00 A2989 RMK A01 T02481004  RH  019%=      5-min Rain = 0
KSE1 232320Z 23011KT 25/M00 A299 RMK A01 T02481001  RH  020%=      5-min Rain = 0
KSE1 232325Z 24009KT 25/01 A299 RMK A01 T02460009  RH  021%=      5-min Rain = 0
KSE1 232330Z 24009KT 24/02 A299 RMK A01 T02440018  RH  023%=      5-min Rain = 0
KSE1 232335Z 24009KT 24/02 A299 RMK A01 T02410023  RH  024%=      5-min Rain = 0
KSE1 232340Z 24008KT 24/02 A299 RMK A01 T02400024  RH  025%=      5-min Rain = 0
KSE1 232345Z 24007KT 24/03 A299 RMK A01 T02390026  RH  025%=      5-min Rain = 0
KSE1 232350Z 24007KT 24/02 A299 RMK A01 T02390024  RH  025%=      5-min Rain = 0
KSE1 232355Z 24007KT 24/03 A299 RMK A01 T02350027  RH  026%=      5-min Rain = 0
KSE1 240000Z 24006KT 23/03 A299 RMK A01 T02320029  RH  027%=      5-min Rain = 0
KSE1 240005Z 24006KT 23/03 A299 RMK A01 T02270030  RH  028%=      5-min Rain = 0
KSE1 240010Z 24005KT 22/04 A299 RMK A01 T02190036  RH  031%=      5-min Rain = 0
KSE1 240015Z 23005KT 22/04 A299 RMK A01 T02150037  RH  032%=      5-min Rain = 0
KSE1 240020Z 22004KT 22/03 A299 RMK A01 T02170030  RH  030%=      5-min Rain = 0
KSE1 240025Z 22004KT 22/03 A299 RMK A01 T02160028  RH  029%=      5-min Rain = 0
KSE1 240030Z 20004KT 22/03 A299 RMK A01 T02170030  RH  030%=      5-min Rain = 0
KSE1 240035Z 18005KT 21/04 A299 RMK A01 T02080039  RH  034%=      5-min Rain = 0
KSE1 240040Z 18005KT 20/04 A299 RMK A01 T02040038  RH  034%=      5-min Rain = 0
KSE1 240045Z 18005KT 21/04 A299 RMK A01 T02050037  RH  033%=      5-min Rain = 0
KSE1 240050Z 17005KT 20/04 A299 RMK A01 T02040040  RH  035%=      5-min Rain = 0
KSE1 240055Z 17005KT 20/04 A299 RMK A01 T01990044  RH  037%=      5-min Rain = 0
KSE1 240100Z 17005KT 20/05 A2989 RMK A01 T01960046  RH  038%=      5-min Rain = 0
KSE1 240105Z 17005KT 19/05 A2989 RMK A01 T01920049  RH  040%=      5-min Rain = 0
KSE1 240110Z 17005KT 19/05 A2989 RMK A01 T01930050  RH  040%=      5-min Rain = 0
KSE1 240115Z 18005KT 19/05 A299 RMK A01 T01910049  RH  040%=      5-min Rain = 0
KSE1 240120Z 18004KT 19/05 A299 RMK A01 T01890045  RH  039%=      5-min Rain = 0
KSE1 240125Z 18005KT 19/05 A299 RMK A01 T01880045  RH  040%=      5-min Rain = 0
KSE1 240130Z 18005KT 18/05 A299 RMK A01 T01840045  RH  041%=      5-min Rain = 0
KSE1 240135Z 18005KT 18/04 A299 RMK A01 T01810044  RH  041%=      5-min Rain = 0
KSE1 240140Z 18005KT 18/05 A299 RMK A01 T01750045  RH  043%=      5-min Rain = 0
KSE1 240145Z 18005KT 17/05 A2991 RMK A01 T01710049  RH  046%=      5-min Rain = 0
KSE1 240150Z 18006KT 17/05 A2991 RMK A01 T01650054  RH  049%=      5-min Rain = 0
KSE1 240155Z 19005KT 16/06 A2991 RMK A01 T01610057  RH  051%=      5-min Rain = 0
KSE1 240200Z 19006KT 16/06 A2991 RMK A01 T01560060  RH  054%=      5-min Rain = 0
KSE1 240205Z 19007KT 16/06 A2991 RMK A01 T01580062  RH  054%=      5-min Rain = 0
KSE1 240210Z 20007KT 16/06 A2991 RMK A01 T01570062  RH  054%=      5-min Rain = 0
KSE1 240215Z 20007KT 16/06 A2991 RMK A01 T01550063  RH  056%=      5-min Rain = 0
KSE1 240220Z 20006KT 15/06 A2992 RMK A01 T01540061  RH  055%=      5-min Rain = 0
KSE1 240225Z 19006KT 16/06 A2992 RMK A01 T01580062  RH  054%=      5-min Rain = 0
KSE1 240230Z 19005KT 16/06 A2992 RMK A01 T01560062  RH  055%=      5-min Rain = 0
KSE1 240235Z 19005KT 15/06 A2992 RMK A01 T01510061  RH  056%=      5-min Rain = 0
KSE1 240240Z 20005KT 15/06 A2992 RMK A01 T01490062  RH  057%=      5-min Rain = 0
KSE1 240245Z 20006KT 15/06 A2993 RMK A01 T01510062  RH  057%=      5-min Rain = 0
KSE1 240250Z 20006KT 15/06 A2993 RMK A01 T01530063  RH  056%=      5-min Rain = 0
KSE1 240255Z 19006KT 15/06 A2993 RMK A01 T01530062  RH  056%=      5-min Rain = 0
KSE1 240300Z 20006KT 15/06 A2993 RMK A01 T01530062  RH  056%=      5-min Rain = 0
KSE1 240305Z 20006KT 15/06 A2993 RMK A01 T01540062  RH  056%=      5-min Rain = 0
KSE1 240310Z 20005KT 15/06 A2994 RMK A01 T01530061  RH  056%=      5-min Rain = 0
KSE1 240315Z 21005KT 15/06 A2994 RMK A01 T01520060  RH  055%=      5-min Rain = 0
KSE1 240320Z 20004KT 15/06 A2994 RMK A01 T01510058  RH  055%=      5-min Rain = 0
KSE1 240325Z 21005KT 15/06 A2994 RMK A01 T01500058  RH  055%=      5-min Rain = 0
KSE1 240330Z 21005KT 15/06 A2994 RMK A01 T01510056  RH  054%=      5-min Rain = 0
KSE1 240335Z 20005KT 15/06 A2994 RMK A01 T01520055  RH  053%=      5-min Rain = 0
KSE1 240340Z 20005KT 15/06 A2995 RMK A01 T01500056  RH  054%=      5-min Rain = 0
KSE1 240345Z 20006KT 15/06 A2995 RMK A01 T01470057  RH  056%=      5-min Rain = 0
KSE1 240350Z 20005KT 15/06 A2995 RMK A01 T01470058  RH  056%=      5-min Rain = 0
KSE1 240355Z 20005KT 15/06 A2995 RMK A01 T01460059  RH  057%=      5-min Rain = 0
KSE1 240400Z 19004KT 15/06 A2995 RMK A01 T01450060  RH  058%=      5-min Rain = 0
KSE1 240405Z 19003KT 14/06 A2995 RMK A01 T01440056  RH  057%=      5-min Rain = 0
KSE1 240410Z 17003KT 14/06 A2995 RMK A01 T01440055  RH  056%=      5-min Rain = 0
KSE1 240415Z 16003KT 14/06 A2995 RMK A01 T01400058  RH  059%=      5-min Rain = 0
KSE1 240420Z 13005G11KT 14/06 A2995 RMK A01 T01390060  RH  061%=      5-min Rain = 0
KSE1 240425Z 14007KT 13/06 A2995 RMK A01 T01250059  RH  066%=      5-min Rain = 0
KSE1 240430Z 16006KT 13/05 A2995 RMK A01 T01320048  RH  058%=      5-min Rain = 0
KSE1 240435Z 15006KT 13/04 A2996 RMK A01 T01340043  RH  055%=      5-min Rain = 0
KSE1 240440Z 15007KT 13/05 A2996 RMK A01 T01310045  RH  057%=      5-min Rain = 0
KSE1 240445Z 16009KT 15/08 A2996 RMK A01 T01470079  RH  066%=      5-min Rain = 0
KSE1 240450Z 16010KT 16/10 A2995 RMK A01 T01570095  RH  069%=      5-min Rain = 0

Page generated in 0.0186 seconds.